createdAt,value
2018-10-17T00:00:27.014Z,17.70
2018-10-17T00:02:54.543Z,17.80
2018-10-17T00:05:22.203Z,16.10
2018-10-17T00:07:49.751Z,17.70
2018-10-17T00:10:17.278Z,17.80
2018-10-17T00:12:44.812Z,17.80
2018-10-17T00:15:12.354Z,17.80
2018-10-17T00:17:39.829Z,17.80
2018-10-17T00:20:08.377Z,17.80
2018-10-17T00:22:35.859Z,17.80
2018-10-17T00:25:03.480Z,17.80
2018-10-17T00:27:30.931Z,17.80
2018-10-17T00:29:58.493Z,17.70
2018-10-17T00:32:25.991Z,17.70
2018-10-17T00:34:53.580Z,17.70
2018-10-17T00:37:21.034Z,17.70
2018-10-17T00:39:48.545Z,17.70
2018-10-17T00:42:16.101Z,17.70
2018-10-17T00:44:43.649Z,17.70
2018-10-17T00:47:11.186Z,17.70
2018-10-17T00:49:38.692Z,17.70
2018-10-17T00:52:06.265Z,16.30
2018-10-17T00:54:33.793Z,17.60
2018-10-17T00:57:01.244Z,17.60
2018-10-17T00:59:28.787Z,17.50
2018-10-17T01:01:56.259Z,17.50
2018-10-17T01:04:23.828Z,17.50
2018-10-17T01:06:51.411Z,17.50
2018-10-17T01:09:18.896Z,17.50
2018-10-17T01:11:46.397Z,17.40
2018-10-17T01:14:13.985Z,17.40
2018-10-17T01:16:41.483Z,17.50
2018-10-17T01:19:09.091Z,17.40
2018-10-17T01:21:36.987Z,17.40
2018-10-17T01:24:04.923Z,17.40
2018-10-17T01:26:32.575Z,17.30
2018-10-17T01:29:00.204Z,17.30
2018-10-17T01:31:27.711Z,17.30
2018-10-17T01:33:55.227Z,17.30
2018-10-17T01:36:22.744Z,17.30
2018-10-17T01:38:50.313Z,17.30
2018-10-17T01:41:17.989Z,17.20
2018-10-17T01:43:45.509Z,17.30
2018-10-17T01:46:13.065Z,17.20
2018-10-17T01:48:40.618Z,17.20
2018-10-17T01:51:08.197Z,17.20
2018-10-17T01:53:35.700Z,17.10
2018-10-17T01:56:03.323Z,17.10
2018-10-17T01:58:30.819Z,17.10
2018-10-17T02:00:58.411Z,17.10
2018-10-17T02:03:25.873Z,17.10
2018-10-17T02:05:53.442Z,17.10
2018-10-17T02:08:21.152Z,17.00
2018-10-17T02:13:43.744Z,17.10
2018-10-17T02:16:11.250Z,17.10
2018-10-17T02:18:38.868Z,17.00
2018-10-17T02:21:06.367Z,16.80
2018-10-17T02:23:33.916Z,16.90
2018-10-17T02:26:01.559Z,16.90
2018-10-17T02:28:29.100Z,16.90
2018-10-17T02:30:56.708Z,16.80
2018-10-17T02:33:24.490Z,16.80
2018-10-17T02:35:52.034Z,16.90
2018-10-17T02:38:19.546Z,16.80
2018-10-17T02:40:47.069Z,16.80
2018-10-17T02:43:14.738Z,16.80
2018-10-17T02:45:42.206Z,16.90
2018-10-17T02:48:09.815Z,16.70
2018-10-17T02:50:37.306Z,16.80
2018-10-17T02:53:04.982Z,16.80
2018-10-17T02:55:32.402Z,16.80
2018-10-17T02:57:59.876Z,16.90
2018-10-17T03:00:27.398Z,16.80
2018-10-17T03:02:54.902Z,16.80
2018-10-17T03:05:22.445Z,16.70
2018-10-17T03:07:49.930Z,16.80
2018-10-17T03:10:17.478Z,16.80
2018-10-17T03:12:44.966Z,16.70
2018-10-17T03:15:12.498Z,16.70
2018-10-17T03:17:40.060Z,16.70
2018-10-17T03:20:08.488Z,16.60
2018-10-17T03:22:36.022Z,16.60
2018-10-17T03:25:03.644Z,16.60
2018-10-17T03:27:31.176Z,16.50
2018-10-17T03:29:58.697Z,16.50
2018-10-17T03:32:26.204Z,14.80
2018-10-17T03:34:53.754Z,16.40
2018-10-17T03:37:21.232Z,16.50
2018-10-17T03:39:48.767Z,16.50
2018-10-17T03:42:16.339Z,16.40
2018-10-17T03:44:43.929Z,16.00
2018-10-17T03:47:11.543Z,16.40
2018-10-17T04:22:49.283Z,15.70
2018-10-17T04:25:16.909Z,15.60
2018-10-17T04:27:44.381Z,15.60
2018-10-17T04:30:11.944Z,15.60
2018-10-17T04:32:39.551Z,15.60
2018-10-17T04:35:07.059Z,15.60
2018-10-17T04:37:34.903Z,15.60
2018-10-17T04:40:02.517Z,15.60
2018-10-17T04:42:30.026Z,15.60
2018-10-17T04:44:57.536Z,15.70
2018-10-17T04:47:25.176Z,15.60
2018-10-17T04:49:52.680Z,15.70
2018-10-17T04:52:20.156Z,15.70
2018-10-17T04:54:47.635Z,15.70
2018-10-17T04:57:15.149Z,15.70
2018-10-17T04:59:42.649Z,15.70
2018-10-17T05:02:10.139Z,15.70
2018-10-17T05:04:37.729Z,15.70
2018-10-17T05:07:05.303Z,15.70
2018-10-17T05:09:32.918Z,14.90
2018-10-17T05:12:00.542Z,14.50
2018-10-17T05:14:28.228Z,15.70
2018-10-17T05:16:55.786Z,15.70
2018-10-17T05:19:23.347Z,15.60
2018-10-17T05:21:50.878Z,15.70
2018-10-17T05:24:18.408Z,15.50
2018-10-17T05:26:45.919Z,15.70
2018-10-17T05:29:13.511Z,15.60
2018-10-17T05:31:41.082Z,15.60
2018-10-17T05:34:08.648Z,15.40
2018-10-17T05:36:36.348Z,15.60
2018-10-17T05:39:05.548Z,15.60
2018-10-17T05:41:33.103Z,13.60
2018-10-17T05:44:00.662Z,13.20
2018-10-17T05:46:28.364Z,15.50
2018-10-17T05:48:55.888Z,15.50
2018-10-17T05:51:23.442Z,15.50
2018-10-17T05:53:51.048Z,15.40
2018-10-17T05:56:18.579Z,15.50
2018-10-17T05:58:46.075Z,15.50
2018-10-17T06:01:13.673Z,15.50
2018-10-17T06:03:41.161Z,15.50
2018-10-17T06:06:08.756Z,15.40
2018-10-17T06:08:36.302Z,13.50
2018-10-17T06:11:03.913Z,15.30
2018-10-17T06:13:31.606Z,15.40
2018-10-17T06:15:59.128Z,14.10
2018-10-17T06:18:26.681Z,15.50
2018-10-17T06:20:54.184Z,15.00
2018-10-17T06:23:21.698Z,15.40
2018-10-17T06:25:49.185Z,15.50
2018-10-17T06:28:16.760Z,15.50
2018-10-17T06:30:44.246Z,15.40
2018-10-17T06:33:11.800Z,15.50
2018-10-17T06:35:39.339Z,15.50
2018-10-17T06:38:07.108Z,15.50
2018-10-17T06:40:34.652Z,15.60
2018-10-17T06:43:02.195Z,15.50
2018-10-17T06:45:29.700Z,15.60
2018-10-17T06:47:57.239Z,14.60
2018-10-17T06:50:24.792Z,15.60
2018-10-17T06:52:52.307Z,15.70
2018-10-17T06:55:19.899Z,15.70
2018-10-17T06:57:47.501Z,13.20
2018-10-17T07:00:15.004Z,15.80
2018-10-17T07:02:42.482Z,15.70
2018-10-17T07:05:10.689Z,15.80
2018-10-17T07:07:38.376Z,15.80
2018-10-17T07:10:05.966Z,15.90
2018-10-17T07:12:33.517Z,15.80
2018-10-17T07:15:01.146Z,15.70
2018-10-17T07:17:28.680Z,16.00
2018-10-17T07:19:56.268Z,15.90
2018-10-17T07:22:23.869Z,16.00
2018-10-17T07:24:51.470Z,16.10
2018-10-17T07:27:19.008Z,16.00
2018-10-17T07:29:46.771Z,16.10
2018-10-17T07:32:14.126Z,16.20
2018-10-17T07:34:41.932Z,16.20
2018-10-17T07:37:09.653Z,14.90
2018-10-17T07:39:37.149Z,14.30
2018-10-17T07:42:04.945Z,16.50
2018-10-17T07:44:32.425Z,16.50
2018-10-17T07:47:00.010Z,16.60
2018-10-17T07:49:27.593Z,15.40
2018-10-17T07:51:55.149Z,16.90
2018-10-17T07:54:22.782Z,16.90
2018-10-17T07:56:50.476Z,17.00
2018-10-17T07:59:18.153Z,17.10
2018-10-17T08:01:45.772Z,17.90
2018-10-17T08:04:13.362Z,17.50
2018-10-17T08:06:41.011Z,17.60
2018-10-17T08:09:09.759Z,17.80
2018-10-17T08:11:37.394Z,18.30
2018-10-17T08:14:05.255Z,17.00
2018-10-17T08:16:32.853Z,19.60
2018-10-17T08:19:00.428Z,20.50
2018-10-17T08:21:28.006Z,21.40
2018-10-17T08:23:55.533Z,22.40
2018-10-17T08:26:23.021Z,23.60
2018-10-17T08:28:50.564Z,24.80
2018-10-17T08:31:18.423Z,24.70
2018-10-17T08:33:45.956Z,27.00
2018-10-17T08:36:13.644Z,28.10
2018-10-17T08:38:41.167Z,29.30
2018-10-17T08:41:08.769Z,30.40
2018-10-17T08:43:36.226Z,31.30
2018-10-17T08:46:03.929Z,32.30
2018-10-17T08:48:31.423Z,33.10
2018-10-17T08:50:58.987Z,34.00
2018-10-17T08:53:26.529Z,34.80
2018-10-17T08:55:54.156Z,35.50
2018-10-17T08:58:21.696Z,36.20
2018-10-17T09:00:49.210Z,37.00
2018-10-17T09:03:16.746Z,37.70
2018-10-17T09:05:44.216Z,38.40
2018-10-17T09:08:11.841Z,38.90
2018-10-17T09:10:39.324Z,39.40
2018-10-17T09:13:06.827Z,39.90
2018-10-17T09:15:38.379Z,40.40
2018-10-17T09:18:01.995Z,40.70
2018-10-17T09:20:29.598Z,41.20
2018-10-17T09:22:57.025Z,41.60
2018-10-17T09:25:24.550Z,41.90
2018-10-17T09:27:52.186Z,41.90
2018-10-17T09:30:19.814Z,42.60
2018-10-17T09:32:47.234Z,42.90
2018-10-17T09:35:14.883Z,43.20
2018-10-17T09:37:42.378Z,43.20
2018-10-17T09:40:10.775Z,43.00
2018-10-17T09:42:38.726Z,42.70
2018-10-17T09:45:07.024Z,42.20
2018-10-17T09:47:34.595Z,41.60
2018-10-17T09:50:02.182Z,40.90
2018-10-17T09:52:29.800Z,40.20
2018-10-17T09:54:57.348Z,39.60
2018-10-17T09:57:24.874Z,38.90
2018-10-17T09:59:52.462Z,38.30
2018-10-17T10:02:20.083Z,37.70
2018-10-17T10:04:47.569Z,37.10
2018-10-17T10:07:15.234Z,36.60
2018-10-17T10:09:42.809Z,36.30
2018-10-17T10:12:10.433Z,36.30
2018-10-17T10:14:37.892Z,36.50
2018-10-17T10:17:05.452Z,36.90
2018-10-17T10:19:32.943Z,37.50
2018-10-17T10:22:00.486Z,38.10
2018-10-17T10:24:27.974Z,38.90
2018-10-17T10:26:55.559Z,39.50
2018-10-17T10:29:23.049Z,40.30
2018-10-17T10:31:50.586Z,41.00
2018-10-17T10:34:18.282Z,41.60
2018-10-17T10:36:45.676Z,42.20
2018-10-17T10:39:13.321Z,42.80
2018-10-17T10:41:41.174Z,43.40
2018-10-17T10:44:08.821Z,43.80
2018-10-17T10:46:36.339Z,44.30
2018-10-17T10:49:04.105Z,44.70
2018-10-17T10:51:31.639Z,45.00
2018-10-17T10:53:59.245Z,45.30
2018-10-17T10:56:26.682Z,45.60
2018-10-17T10:58:54.272Z,45.80
2018-10-17T11:01:22.003Z,46.10
2018-10-17T11:03:49.575Z,46.30
2018-10-17T11:06:17.101Z,46.50
2018-10-17T11:08:44.636Z,46.60
2018-10-17T11:11:12.173Z,46.70
2018-10-17T11:13:39.673Z,46.80
2018-10-17T11:16:07.213Z,46.80
2018-10-17T11:18:34.729Z,46.90
2018-10-17T11:21:02.322Z,46.90
2018-10-17T11:23:29.833Z,47.00
2018-10-17T11:25:57.373Z,47.00
2018-10-17T11:28:24.953Z,47.10
2018-10-17T11:30:52.489Z,47.00
2018-10-17T11:33:20.035Z,47.20
2018-10-17T11:35:47.594Z,47.10
2018-10-17T11:38:15.155Z,47.20
2018-10-17T11:40:42.771Z,47.10
2018-10-17T11:43:10.252Z,47.10
2018-10-17T11:45:37.882Z,47.10
2018-10-17T11:48:05.433Z,47.10
2018-10-17T11:50:33.003Z,47.00
2018-10-17T11:53:00.821Z,47.00
2018-10-17T11:55:28.385Z,46.90
2018-10-17T11:57:55.940Z,46.80
2018-10-17T12:00:23.454Z,46.70
2018-10-17T12:02:50.978Z,46.60
2018-10-17T12:05:18.685Z,46.40
2018-10-17T12:07:45.967Z,46.20
2018-10-17T12:10:13.511Z,45.90
2018-10-17T12:12:41.055Z,44.90
2018-10-17T12:15:11.169Z,45.20
2018-10-17T12:17:38.690Z,44.70
2018-10-17T12:20:08.514Z,44.10
2018-10-17T12:22:36.124Z,43.50
2018-10-17T12:25:04.050Z,42.70
2018-10-17T12:27:31.596Z,41.90
2018-10-17T12:29:59.107Z,41.10
2018-10-17T12:32:26.697Z,40.40
2018-10-17T12:34:54.251Z,39.60
2018-10-17T12:37:21.732Z,39.00
2018-10-17T12:39:49.397Z,38.50
2018-10-17T12:42:16.850Z,38.00
2018-10-17T12:44:44.460Z,37.40
2018-10-17T12:47:12.002Z,37.20
2018-10-17T12:49:39.471Z,36.90
2018-10-17T12:52:07.025Z,36.80
2018-10-17T12:54:34.515Z,36.60
2018-10-17T12:57:02.043Z,36.90
2018-10-17T12:59:29.615Z,37.00
2018-10-17T13:01:57.125Z,37.20
2018-10-17T13:04:24.688Z,37.50
2018-10-17T13:06:52.260Z,37.70
2018-10-17T13:09:19.807Z,38.00
2018-10-17T13:11:47.416Z,38.30
2018-10-17T13:14:14.993Z,38.60
2018-10-17T13:16:42.602Z,38.70
2018-10-17T13:19:10.235Z,39.40
2018-10-17T13:21:37.711Z,39.30
2018-10-17T13:24:05.481Z,39.50
2018-10-17T13:26:33.036Z,39.70
2018-10-17T13:29:00.589Z,39.90
2018-10-17T13:31:28.167Z,40.00
2018-10-17T13:33:55.711Z,40.10
2018-10-17T13:36:23.246Z,40.20
2018-10-17T13:38:50.813Z,40.20
2018-10-17T13:41:18.484Z,40.20
2018-10-17T13:43:46.037Z,40.10
2018-10-17T13:46:13.663Z,41.10
2018-10-17T13:48:41.216Z,40.00
2018-10-17T13:51:08.871Z,39.90
2018-10-17T13:53:36.416Z,39.90
2018-10-17T13:56:04.020Z,39.70
2018-10-17T13:58:31.891Z,39.70
2018-10-17T14:00:59.569Z,39.60
2018-10-17T14:03:26.974Z,39.50
2018-10-17T14:05:54.570Z,39.30
2018-10-17T14:08:22.094Z,39.10
2018-10-17T14:10:49.719Z,38.70
2018-10-17T14:13:17.330Z,38.50
2018-10-17T14:15:44.858Z,38.10
2018-10-17T14:18:12.499Z,37.60
2018-10-17T14:20:39.990Z,37.10
2018-10-17T14:23:07.521Z,36.50
2018-10-17T14:25:35.103Z,36.00
2018-10-17T14:28:02.565Z,35.30
2018-10-17T14:30:30.144Z,34.60
2018-10-17T14:32:57.735Z,34.20
2018-10-17T14:35:25.321Z,33.60
2018-10-17T14:37:52.897Z,33.00
2018-10-17T14:40:20.458Z,32.50
2018-10-17T14:42:47.941Z,32.00
2018-10-17T14:45:15.665Z,31.50
2018-10-17T14:47:43.126Z,31.20
2018-10-17T14:50:10.648Z,30.70
2018-10-17T14:52:38.176Z,30.30
2018-10-17T14:55:06.764Z,29.90
2018-10-17T14:57:34.323Z,28.10
2018-10-17T15:00:01.886Z,29.30
2018-10-17T15:02:29.426Z,29.00
2018-10-17T15:04:57.015Z,28.70
2018-10-17T15:07:24.530Z,28.50
2018-10-17T15:09:52.045Z,28.30
2018-10-17T15:12:19.764Z,28.00
2018-10-17T15:14:47.358Z,27.80
2018-10-17T15:17:14.888Z,27.60
2018-10-17T15:19:42.468Z,27.40
2018-10-17T15:22:10.024Z,27.20
2018-10-17T15:24:37.566Z,27.00
2018-10-17T15:27:05.161Z,26.80
2018-10-17T15:29:32.577Z,26.70
2018-10-17T15:32:00.154Z,26.40
2018-10-17T15:34:27.654Z,23.90
2018-10-17T15:36:55.224Z,26.20
2018-10-17T15:39:22.685Z,26.10
2018-10-17T15:41:50.236Z,26.00
2018-10-17T15:44:17.824Z,25.70
2018-10-17T15:46:45.357Z,25.70
2018-10-17T15:49:12.948Z,25.60
2018-10-17T15:51:40.505Z,25.50
2018-10-17T15:54:08.095Z,24.30
2018-10-17T15:56:35.590Z,25.30
2018-10-17T15:59:03.130Z,25.20
2018-10-17T16:01:30.658Z,25.10
2018-10-17T16:03:58.222Z,22.80
2018-10-17T16:06:25.730Z,24.90
2018-10-17T16:08:53.436Z,24.80
2018-10-17T16:11:22.544Z,24.50
2018-10-17T16:13:50.120Z,24.50
2018-10-17T16:16:17.656Z,24.50
2018-10-17T16:18:45.214Z,26.50
2018-10-17T16:21:12.779Z,24.40
2018-10-17T16:23:40.384Z,24.30
2018-10-17T16:26:07.991Z,24.20
2018-10-17T16:28:35.596Z,24.10
2018-10-17T16:31:03.234Z,24.00
2018-10-17T16:33:30.768Z,23.80
2018-10-17T16:35:58.358Z,23.80
2018-10-17T16:38:25.909Z,23.70
2018-10-17T16:40:53.490Z,23.60
2018-10-17T16:43:21.132Z,23.50
2018-10-17T16:45:48.676Z,23.40
2018-10-17T16:48:16.543Z,23.30
2018-10-17T16:50:44.130Z,20.70
2018-10-17T16:53:11.468Z,23.70
2018-10-17T16:55:39.010Z,23.10
2018-10-17T16:58:06.608Z,23.00
2018-10-17T17:00:34.305Z,22.90
2018-10-17T17:03:01.953Z,22.90
2018-10-17T17:05:30.084Z,22.80
2018-10-17T17:07:59.202Z,22.70
2018-10-17T17:10:26.777Z,22.70
2018-10-17T17:12:54.322Z,22.60
2018-10-17T17:15:21.998Z,22.60
2018-10-17T17:17:49.657Z,22.50
2018-10-17T17:20:17.243Z,21.80
2018-10-17T17:22:44.967Z,22.40
2018-10-17T17:25:12.595Z,22.30
2018-10-17T17:27:40.367Z,22.20
2018-10-17T17:30:11.967Z,22.20
2018-10-17T17:32:39.622Z,22.10
2018-10-17T17:35:07.919Z,22.00
2018-10-17T17:37:35.514Z,20.10
2018-10-17T17:40:03.145Z,21.90
2018-10-17T17:42:32.960Z,20.70
2018-10-17T17:45:00.633Z,21.80
2018-10-17T17:47:28.259Z,21.70
2018-10-17T17:49:55.981Z,21.50
2018-10-17T17:52:23.490Z,21.70
2018-10-17T17:54:51.046Z,21.60
2018-10-17T17:57:18.624Z,21.40
2018-10-17T17:59:46.226Z,19.70
2018-10-17T18:02:13.802Z,21.40
2018-10-17T18:04:41.406Z,21.40
2018-10-17T18:07:09.004Z,21.40
2018-10-17T18:09:36.681Z,21.30
2018-10-17T18:12:04.571Z,21.30
2018-10-17T18:14:32.111Z,21.30
2018-10-17T18:16:59.703Z,21.20
2018-10-17T18:19:27.319Z,22.80
2018-10-17T18:21:55.692Z,19.10
2018-10-17T18:24:23.192Z,21.00
2018-10-17T18:26:50.734Z,21.00
2018-10-17T18:29:18.274Z,21.00
2018-10-17T18:31:45.838Z,20.90
2018-10-17T18:34:13.479Z,20.90
2018-10-17T18:36:40.956Z,20.80
2018-10-17T18:39:08.844Z,20.80
2018-10-17T18:41:37.831Z,20.80
2018-10-17T18:44:09.011Z,20.70
2018-10-17T18:46:37.399Z,20.80
2018-10-17T18:49:05.264Z,20.60
2018-10-17T18:51:34.130Z,20.60
2018-10-17T18:54:03.704Z,20.50
2018-10-17T18:56:31.360Z,20.60
2018-10-17T18:58:59.130Z,20.60
2018-10-17T19:01:26.841Z,20.50
2018-10-17T19:03:54.364Z,20.50
2018-10-17T19:06:21.958Z,20.40
2018-10-17T19:08:50.538Z,20.40
2018-10-17T19:11:19.828Z,19.90
2018-10-17T19:13:49.453Z,20.40
2018-10-17T19:16:19.197Z,17.50
2018-10-17T19:18:46.864Z,18.00
2018-10-17T19:21:14.549Z,20.30
2018-10-17T19:23:42.026Z,20.10
2018-10-17T19:26:09.876Z,20.10
2018-10-17T19:28:37.451Z,18.80
2018-10-17T19:31:05.209Z,19.10
2018-10-17T19:33:32.820Z,20.00
2018-10-17T19:36:00.535Z,20.60
2018-10-17T19:38:27.994Z,19.80
2018-10-17T19:40:55.564Z,19.90
2018-10-17T19:43:23.114Z,18.50
2018-10-17T19:45:50.690Z,19.80
2018-10-17T19:48:18.236Z,18.00
2018-10-17T19:50:46.774Z,19.70
2018-10-17T19:53:14.385Z,19.80
2018-10-17T19:55:41.961Z,19.60
2018-10-17T19:58:09.491Z,16.10
2018-10-17T20:00:37.059Z,19.60
2018-10-17T20:03:05.947Z,17.30
2018-10-17T20:05:33.473Z,19.50
2018-10-17T20:08:01.086Z,19.40
2018-10-17T20:10:29.101Z,19.40
2018-10-17T20:12:56.603Z,19.30
2018-10-17T20:15:24.157Z,19.30
2018-10-17T20:17:51.739Z,19.30
2018-10-17T20:20:19.277Z,19.60
2018-10-17T20:22:46.789Z,19.20
2018-10-17T20:25:14.540Z,19.20
2018-10-17T20:27:42.506Z,19.10
2018-10-17T20:30:10.617Z,19.10
2018-10-17T20:32:38.305Z,19.10
2018-10-17T20:35:06.320Z,19.00
2018-10-17T20:37:33.832Z,16.20
2018-10-17T20:40:01.303Z,15.60
2018-10-17T20:42:28.825Z,18.90
2018-10-17T20:44:56.391Z,18.90
2018-10-17T20:47:24.194Z,18.80
2018-10-17T20:49:51.744Z,18.80
2018-10-17T20:52:19.353Z,18.80
2018-10-17T20:54:47.003Z,18.70
2018-10-17T20:57:14.516Z,18.70
2018-10-17T20:59:42.090Z,18.70
2018-10-17T21:02:09.627Z,18.60
2018-10-17T21:04:37.219Z,18.60
2018-10-17T21:07:04.946Z,16.90
2018-10-17T21:09:32.475Z,18.50
2018-10-17T21:12:00.019Z,18.50
2018-10-17T21:14:27.646Z,18.20
2018-10-17T21:16:55.203Z,18.50
2018-10-17T21:19:24.118Z,18.40
2018-10-17T21:21:51.734Z,18.50
2018-10-17T21:24:19.261Z,18.40
2018-10-17T21:26:47.694Z,18.30
2018-10-17T21:29:15.874Z,18.00
2018-10-17T21:31:43.423Z,18.20
2018-10-17T21:34:10.980Z,18.20
2018-10-17T21:36:38.881Z,18.20
2018-10-17T21:39:08.504Z,18.20
2018-10-17T21:41:36.042Z,18.00
2018-10-17T21:44:03.812Z,18.00
2018-10-17T21:46:31.295Z,18.00
2018-10-17T21:49:00.308Z,18.00
2018-10-17T21:51:27.856Z,18.00
2018-10-17T21:53:55.517Z,18.00
2018-10-17T21:56:23.114Z,17.80
2018-10-17T21:58:50.664Z,17.80
2018-10-17T22:01:18.167Z,17.80
2018-10-17T22:03:45.687Z,17.80
2018-10-17T22:06:13.217Z,15.40
2018-10-17T22:08:43.367Z,17.70
2018-10-17T22:11:10.835Z,17.30
2018-10-17T22:13:38.335Z,17.60
2018-10-17T22:16:05.835Z,17.70
2018-10-17T22:18:33.352Z,17.60
2018-10-17T22:21:00.835Z,17.70
2018-10-17T22:23:28.347Z,17.60
2018-10-17T22:25:55.878Z,17.60
2018-10-17T22:28:23.397Z,17.50
2018-10-17T22:30:50.958Z,17.50
2018-10-17T22:33:18.497Z,17.50
2018-10-17T22:35:47.253Z,17.50
2018-10-17T22:38:14.884Z,17.50
2018-10-17T22:40:42.383Z,17.40
2018-10-17T22:43:11.455Z,17.30
2018-10-17T22:45:39.001Z,17.40
2018-10-17T22:48:06.502Z,17.30
2018-10-17T22:50:34.065Z,17.30
2018-10-17T22:53:01.709Z,19.20
2018-10-17T22:55:29.205Z,17.30
2018-10-17T22:57:57.949Z,17.20
2018-10-17T23:00:25.541Z,17.20
2018-10-17T23:02:53.093Z,17.10
2018-10-17T23:05:20.579Z,17.20
2018-10-17T23:07:48.153Z,17.20
2018-10-17T23:10:15.703Z,17.10
2018-10-17T23:12:43.281Z,17.10
2018-10-17T23:15:12.726Z,17.10
2018-10-17T23:17:41.956Z,17.10
2018-10-17T23:20:09.959Z,19.00
2018-10-17T23:22:38.010Z,18.50
2018-10-17T23:25:06.053Z,16.90
2018-10-17T23:27:33.598Z,16.90
2018-10-17T23:30:01.137Z,16.90
2018-10-17T23:32:28.700Z,16.90
2018-10-17T23:34:56.274Z,16.90
2018-10-17T23:37:24.957Z,16.80
2018-10-17T23:39:52.500Z,16.90
2018-10-17T23:42:20.116Z,16.80
2018-10-17T23:44:47.677Z,16.80
2018-10-17T23:47:15.721Z,16.60
2018-10-17T23:49:43.206Z,16.70
2018-10-17T23:52:12.361Z,16.70
2018-10-17T23:54:39.904Z,16.50
2018-10-17T23:57:07.403Z,16.70
2018-10-17T23:59:36.456Z,16.60
